createdAt,value
2023-02-11T00:02:10.108Z,101572.53
2023-02-11T00:05:12.624Z,101546.53
2023-02-11T00:08:17.076Z,101559.72
2023-02-11T00:11:22.171Z,101549.50
2023-02-11T00:14:24.747Z,101512.28
2023-02-11T00:17:28.312Z,101533.13
2023-02-11T00:20:30.626Z,101519.66
2023-02-11T00:23:33.110Z,101498.19
2023-02-11T00:26:36.581Z,101523.09
2023-02-11T00:29:39.793Z,101487.31
2023-02-11T00:32:43.038Z,101489.72
2023-02-11T00:35:45.554Z,101494.34
2023-02-11T00:38:49.202Z,101481.03
2023-02-11T00:41:51.972Z,101486.28
2023-02-11T00:44:54.512Z,101471.81
2023-02-11T00:47:57.504Z,101464.00
2023-02-11T00:50:59.957Z,101451.88
2023-02-11T00:54:02.458Z,101445.75
2023-02-11T00:57:05.022Z,101434.34
2023-02-11T01:00:09.096Z,101436.00
2023-02-11T01:03:11.368Z,101430.69
2023-02-11T01:06:14.416Z,101427.78
2023-02-11T01:09:17.109Z,101415.31
2023-02-11T01:12:19.833Z,101415.69
2023-02-11T01:15:23.117Z,101411.53
2023-02-11T01:18:25.929Z,101407.31
2023-02-11T01:21:28.357Z,101402.75
2023-02-11T01:24:31.008Z,101385.72
2023-02-11T01:27:34.849Z,101363.41
2023-02-11T01:30:37.539Z,101375.63
2023-02-11T01:33:40.323Z,101369.16
2023-02-11T01:36:43.425Z,101371.19
2023-02-11T01:39:46.058Z,101341.09
2023-02-11T01:42:50.962Z,101318.47
2023-02-11T01:46:36.379Z,101330.09
2023-02-11T01:49:45.658Z,101330.59
2023-02-11T01:52:48.242Z,101320.56
2023-02-11T01:56:11.441Z,101305.72
2023-02-11T01:59:24.648Z,101295.00
2023-02-11T02:02:35.566Z,101300.59
2023-02-11T02:06:08.882Z,101285.28
2023-02-11T02:09:26.674Z,101274.94
2023-02-11T02:12:31.143Z,101273.47
2023-02-11T02:15:39.369Z,101257.13
2023-02-11T02:19:00.435Z,101255.47
2023-02-11T02:22:30.777Z,101242.81
2023-02-11T02:25:48.325Z,101251.25
2023-02-11T02:29:17.206Z,101241.59
2023-02-11T02:32:47.184Z,101243.56
2023-02-11T02:36:02.325Z,101228.47
2023-02-11T02:39:12.370Z,101233.59
2023-02-11T02:42:15.697Z,101230.31
2023-02-11T02:45:18.447Z,101221.09
2023-02-11T02:48:33.007Z,101216.19
2023-02-11T02:51:43.696Z,101206.44
2023-02-11T02:55:14.478Z,101190.97
2023-02-11T02:58:31.863Z,101196.91
2023-02-11T03:01:34.433Z,101189.31
2023-02-11T03:05:03.684Z,101173.53
2023-02-11T03:08:10.260Z,101181.81
2023-02-11T03:11:13.270Z,101174.78
2023-02-11T03:14:19.155Z,101157.72
2023-02-11T03:17:22.658Z,101165.47
2023-02-11T03:20:25.971Z,101154.72
2023-02-11T03:23:38.233Z,101137.09
2023-02-11T03:26:53.021Z,101135.97
2023-02-11T03:30:01.976Z,101130.66
2023-02-11T03:33:18.285Z,101132.84
2023-02-11T03:36:25.603Z,101123.41
2023-02-11T03:39:40.835Z,101109.09
2023-02-11T03:42:50.781Z,101122.25
2023-02-11T03:45:54.657Z,101131.78
2023-02-11T03:49:10.246Z,101135.09
2023-02-11T03:52:14.202Z,101121.78
2023-02-11T03:55:20.431Z,101112.72
2023-02-11T03:58:23.359Z,101121.38
2023-02-11T04:01:25.869Z,101112.75
2023-02-11T04:04:28.834Z,101083.69
2023-02-11T04:07:31.301Z,101088.38
2023-02-11T04:10:33.861Z,101078.19
2023-02-11T04:13:36.349Z,101070.81
2023-02-11T04:16:38.768Z,101073.88
2023-02-11T04:19:41.257Z,101069.03
2023-02-11T04:22:43.657Z,101068.84
2023-02-11T04:25:46.013Z,101080.72
2023-02-11T04:28:49.135Z,101081.28
2023-02-11T04:31:52.152Z,101061.63
2023-02-11T04:34:55.469Z,101072.19
2023-02-11T04:37:58.041Z,101065.09
2023-02-11T04:41:00.675Z,101086.41
2023-02-11T04:44:03.688Z,101057.16
2023-02-11T04:47:06.288Z,101073.81
2023-02-11T04:50:08.857Z,101064.31
2023-02-11T04:53:11.373Z,101061.75
2023-02-11T04:56:13.975Z,101061.88
2023-02-11T04:59:16.562Z,101060.03
2023-02-11T05:02:19.255Z,101034.81
2023-02-11T05:05:21.892Z,101017.25
2023-02-11T05:08:24.149Z,101020.31
2023-02-11T05:11:26.904Z,101004.13
2023-02-11T05:14:29.410Z,100982.34
2023-02-11T05:17:31.774Z,100999.25
2023-02-11T05:20:34.364Z,100994.44
2023-02-11T05:23:37.223Z,100990.38
2023-02-11T05:26:39.763Z,100988.13
2023-02-11T05:29:42.596Z,100976.59
2023-02-11T05:32:45.019Z,100964.16
2023-02-11T05:35:47.687Z,100975.53
2023-02-11T05:38:51.070Z,100964.78
2023-02-11T05:41:53.528Z,100956.13
2023-02-11T05:44:55.864Z,100939.34
2023-02-11T05:47:58.689Z,100939.13
2023-02-11T05:51:01.289Z,100940.59
2023-02-11T05:54:03.879Z,100957.75
2023-02-11T05:57:06.397Z,100936.28
2023-02-11T06:00:09.817Z,100934.63
2023-02-11T06:03:14.809Z,100938.97
2023-02-11T06:06:17.748Z,100892.59
2023-02-11T06:09:20.222Z,100922.38
2023-02-11T06:12:22.710Z,100926.97
2023-02-11T06:15:25.279Z,100907.88
2023-02-11T06:18:27.829Z,100908.19
2023-02-11T06:21:42.733Z,100902.16
2023-02-11T06:25:00.426Z,100910.47
2023-02-11T06:28:04.216Z,100919.75
2023-02-11T06:31:07.737Z,100914.75
2023-02-11T06:34:10.591Z,100916.88
2023-02-11T06:37:13.134Z,100907.31
2023-02-11T06:40:15.619Z,100898.25
2023-02-11T06:43:17.967Z,100894.19
2023-02-11T06:46:20.409Z,100892.88
2023-02-11T06:49:23.279Z,100880.75
2023-02-11T06:52:25.949Z,100870.00
2023-02-11T06:55:28.437Z,100893.34
2023-02-11T06:58:30.981Z,100895.81
2023-02-11T07:01:33.359Z,100887.78
2023-02-11T07:04:35.796Z,100888.34
2023-02-11T07:07:38.128Z,100886.34
2023-02-11T07:10:40.955Z,100872.47
2023-02-11T07:13:43.835Z,100872.28
2023-02-11T07:16:46.815Z,100839.78
2023-02-11T07:19:49.622Z,100842.94
2023-02-11T07:22:52.048Z,100840.88
2023-02-11T07:25:54.416Z,100851.03
2023-02-11T07:28:57.006Z,100861.16
2023-02-11T07:31:59.601Z,100860.50
2023-02-11T07:35:05.036Z,100848.31
2023-02-11T07:38:07.588Z,100865.13
2023-02-11T07:41:12.691Z,100875.44
2023-02-11T07:44:15.465Z,100860.47
2023-02-11T07:47:17.894Z,100859.47
2023-02-11T07:50:20.217Z,100865.59
2023-02-11T07:53:22.672Z,100878.63
2023-02-11T07:56:25.261Z,100881.16
2023-02-11T07:59:27.794Z,100854.91
2023-02-11T08:02:30.426Z,100873.69
2023-02-11T08:05:33.171Z,100854.28
2023-02-11T08:08:36.910Z,100838.69
2023-02-11T08:11:39.350Z,100830.94
2023-02-11T08:14:41.958Z,100807.47
2023-02-11T08:17:44.352Z,100802.13
2023-02-11T08:20:46.914Z,100820.22
2023-02-11T08:23:49.985Z,100807.28
2023-02-11T08:26:52.372Z,100819.47
2023-02-11T08:29:55.728Z,100830.94
2023-02-11T08:32:58.497Z,100821.34
2023-02-11T08:36:02.051Z,100844.06
2023-02-11T08:39:22.184Z,100822.91
2023-02-11T08:42:25.465Z,100821.91
2023-02-11T08:45:28.257Z,100841.81
2023-02-11T08:48:31.036Z,100847.19
2023-02-11T08:51:33.752Z,100845.53
2023-02-11T08:54:36.712Z,100856.84
2023-02-11T08:57:39.453Z,100848.41
2023-02-11T09:00:44.148Z,100840.97
2023-02-11T09:03:46.997Z,100839.28
2023-02-11T09:06:49.831Z,100815.50
2023-02-11T09:09:52.409Z,100831.84
2023-02-11T09:12:54.876Z,100818.47
2023-02-11T09:15:57.793Z,100801.88
2023-02-11T09:19:01.917Z,100770.63
2023-02-11T09:22:04.506Z,100768.91
2023-02-11T09:25:07.318Z,100761.25
2023-02-11T09:28:10.028Z,100739.75
2023-02-11T09:31:16.399Z,100741.84
2023-02-11T09:34:19.017Z,100745.13
2023-02-11T09:37:21.429Z,100743.88
2023-02-11T09:40:24.053Z,100764.38
2023-02-11T09:43:37.550Z,100756.25
2023-02-11T09:46:42.807Z,100773.44
2023-02-11T09:49:47.958Z,100796.34
2023-02-11T09:53:11.459Z,100777.78
2023-02-11T09:56:15.514Z,100788.56
2023-02-11T09:59:19.762Z,100784.00
2023-02-11T10:02:27.986Z,100787.31
2023-02-11T10:06:05.699Z,100788.94
2023-02-11T10:09:08.017Z,100791.25
2023-02-11T10:12:34.568Z,100795.75
2023-02-11T10:15:44.161Z,100800.09
2023-02-11T10:19:07.407Z,100792.44
2023-02-11T10:22:09.968Z,100786.91
2023-02-11T10:25:37.727Z,100765.59
2023-02-11T10:28:41.047Z,100739.56
2023-02-11T10:31:44.508Z,100762.94
2023-02-11T10:34:47.162Z,100775.97
2023-02-11T10:37:50.177Z,100772.66
2023-02-11T10:40:53.131Z,100761.91
2023-02-11T10:43:56.297Z,100764.59
2023-02-11T10:47:02.731Z,100730.44
2023-02-11T10:50:25.750Z,100724.88
2023-02-11T10:53:28.312Z,100760.47
2023-02-11T10:56:33.744Z,100746.16
2023-02-11T10:59:40.477Z,100735.19
2023-02-11T11:02:44.740Z,100734.41
2023-02-11T11:05:52.433Z,100734.41
2023-02-11T11:08:56.298Z,100742.69
2023-02-11T11:11:58.711Z,100741.63
2023-02-11T11:15:19.416Z,100719.91
2023-02-11T11:18:23.473Z,100701.91
2023-02-11T11:21:29.752Z,100709.09
2023-02-11T11:24:34.730Z,100699.19
2023-02-11T11:27:37.919Z,100733.28
2023-02-11T11:30:43.003Z,100725.66
2023-02-11T11:33:46.887Z,100723.78
2023-02-11T11:36:51.180Z,100730.22
2023-02-11T11:40:05.055Z,100734.56
2023-02-11T11:43:23.357Z,100742.00
2023-02-11T11:46:39.190Z,100744.06
2023-02-11T11:50:09.435Z,100767.88
2023-02-11T11:53:16.972Z,100759.19
2023-02-11T11:56:28.923Z,100764.16
2023-02-11T11:59:32.884Z,100785.22
2023-02-11T12:02:38.217Z,100788.50
2023-02-11T12:06:07.781Z,100795.16
2023-02-11T12:09:30.774Z,100792.63
2023-02-11T12:12:50.777Z,100801.72
2023-02-11T12:16:20.185Z,100816.69
2023-02-11T12:19:43.818Z,100798.56
2023-02-11T12:22:52.964Z,100803.69
2023-02-11T12:26:16.164Z,100816.19
2023-02-11T12:29:44.972Z,100815.19
2023-02-11T12:32:56.547Z,100827.00
2023-02-11T12:36:28.402Z,100822.63
2023-02-11T12:39:52.768Z,100824.28
2023-02-11T12:43:16.905Z,100814.91
2023-02-11T12:46:23.331Z,100818.63
2023-02-11T12:49:47.551Z,100822.88
2023-02-11T12:52:54.417Z,100812.97
2023-02-11T12:56:02.574Z,100793.19
2023-02-11T12:59:08.036Z,100825.84
2023-02-11T13:02:23.029Z,100823.81
2023-02-11T13:05:27.101Z,100830.13
2023-02-11T13:08:40.401Z,100828.34
2023-02-11T13:11:52.150Z,100820.53
2023-02-11T13:14:59.364Z,100836.41
2023-02-11T13:18:08.731Z,100828.06
2023-02-11T13:21:17.978Z,100845.56
2023-02-11T13:24:20.501Z,100837.88
2023-02-11T13:27:31.338Z,100837.44
2023-02-11T13:30:39.660Z,100840.41
2023-02-11T13:33:46.057Z,100842.03
2023-02-11T13:36:56.551Z,100853.38
2023-02-11T13:40:06.871Z,100861.19
2023-02-11T13:43:24.159Z,100850.41
2023-02-11T13:46:27.532Z,100874.69
2023-02-11T13:49:35.767Z,100875.19
2023-02-11T13:52:39.188Z,100880.53
2023-02-11T13:55:44.707Z,100882.38
2023-02-11T13:58:50.204Z,100895.09
2023-02-11T14:02:40.359Z,100897.84
2023-02-11T14:06:26.986Z,100911.00
2023-02-11T14:09:39.015Z,100909.19
2023-02-11T14:12:41.374Z,100906.00
2023-02-11T14:15:47.094Z,100912.75
2023-02-11T14:18:49.456Z,100907.69
2023-02-11T14:21:52.464Z,100892.66
2023-02-11T14:25:06.614Z,100923.06
2023-02-11T14:28:22.713Z,100917.84
2023-02-11T14:31:28.458Z,100899.44
2023-02-11T14:34:54.691Z,100930.00
2023-02-11T14:38:16.429Z,100929.44
2023-02-11T14:41:22.389Z,100926.81
2023-02-11T14:44:29.483Z,100931.16
2023-02-11T14:47:41.675Z,100925.31
2023-02-11T14:50:51.089Z,100935.03
2023-02-11T14:53:59.538Z,100929.53
2023-02-11T14:57:19.552Z,100955.78
2023-02-11T15:00:27.561Z,100948.44
2023-02-11T15:03:43.438Z,100976.91
2023-02-11T15:06:49.930Z,100971.38
2023-02-11T15:09:54.274Z,100988.97
2023-02-11T15:12:57.338Z,101000.97
2023-02-11T15:16:11.265Z,101010.13
2023-02-11T15:19:36.118Z,101004.88
2023-02-11T15:22:39.502Z,101015.69
2023-02-11T15:25:51.463Z,101004.50
2023-02-11T15:28:53.979Z,101023.63
2023-02-11T15:32:29.127Z,100973.50
2023-02-11T15:35:36.868Z,101033.97
2023-02-11T15:38:41.155Z,101043.50
2023-02-11T15:41:44.578Z,101032.91
2023-02-11T15:44:56.388Z,101051.22
2023-02-11T15:48:17.973Z,101045.78
2023-02-11T15:51:29.779Z,101061.56
2023-02-11T15:54:33.016Z,101065.31
2023-02-11T15:57:37.073Z,101074.22
2023-02-11T16:00:48.406Z,101089.78
2023-02-11T16:03:51.930Z,101091.03
2023-02-11T16:06:55.941Z,101106.16
2023-02-11T16:09:59.331Z,101110.25
2023-02-11T16:13:08.239Z,101124.19
2023-02-11T16:16:25.345Z,101126.06
2023-02-11T16:19:29.114Z,101134.38
2023-02-11T16:22:36.533Z,101128.16
2023-02-11T16:25:43.135Z,101135.81
2023-02-11T16:28:46.019Z,101134.94
2023-02-11T16:31:50.521Z,101151.16
2023-02-11T16:34:55.574Z,101151.81
2023-02-11T16:37:58.728Z,101142.88
2023-02-11T16:41:01.660Z,101149.28
2023-02-11T16:44:05.040Z,101154.06
2023-02-11T16:47:11.405Z,101172.09
2023-02-11T16:50:22.870Z,101175.19
2023-02-11T16:53:26.149Z,101184.94
2023-02-11T16:56:29.450Z,101190.56
2023-02-11T16:59:32.323Z,101200.34
2023-02-11T17:02:36.894Z,101202.19
2023-02-11T17:05:58.058Z,101216.91
2023-02-11T17:09:00.861Z,101215.03
2023-02-11T17:12:03.594Z,101228.69
2023-02-11T17:15:07.653Z,101244.91
2023-02-11T17:18:14.447Z,101255.47
2023-02-11T17:21:17.657Z,101264.00
2023-02-11T17:24:22.010Z,101239.31
2023-02-11T17:27:24.930Z,101264.63
2023-02-11T17:30:27.778Z,101264.81
2023-02-11T17:33:30.425Z,101266.47
2023-02-11T17:36:33.440Z,101264.63
2023-02-11T17:39:37.172Z,101276.44
2023-02-11T17:42:39.605Z,101274.56
2023-02-11T17:45:42.959Z,101296.75
2023-02-11T17:48:45.588Z,101293.03
2023-02-11T17:51:48.067Z,101287.88
2023-02-11T17:54:51.662Z,101310.03
2023-02-11T17:57:54.089Z,101318.53
2023-02-11T18:00:59.369Z,101329.97
2023-02-11T18:04:02.099Z,101333.88
2023-02-11T18:07:04.917Z,101338.47
2023-02-11T18:10:08.760Z,101348.63
2023-02-11T18:13:11.265Z,101356.72
2023-02-11T18:16:15.983Z,101359.63
2023-02-11T18:19:19.303Z,101369.19
2023-02-11T18:22:21.744Z,101372.44
2023-02-11T18:25:24.326Z,101385.13
2023-02-11T18:28:26.780Z,101381.38
2023-02-11T18:31:29.391Z,101391.13
2023-02-11T18:34:33.234Z,101392.81
2023-02-11T18:37:35.972Z,101404.44
2023-02-11T18:40:41.590Z,101422.28
2023-02-11T18:43:44.011Z,101433.06
2023-02-11T18:46:46.860Z,101433.50
2023-02-11T18:49:49.378Z,101450.31
2023-02-11T18:52:51.866Z,101450.16
2023-02-11T18:55:55.174Z,101463.47
2023-02-11T18:59:01.353Z,101467.88
2023-02-11T19:02:04.015Z,101476.78
2023-02-11T19:05:06.807Z,101482.38
2023-02-11T19:08:09.301Z,101492.94
2023-02-11T19:11:12.066Z,101506.41
2023-02-11T19:14:16.089Z,101515.28
2023-02-11T19:17:18.428Z,101534.63
2023-02-11T19:20:21.172Z,101536.78
2023-02-11T19:23:27.953Z,101537.75
2023-02-11T19:26:31.680Z,101562.38
2023-02-11T19:29:38.546Z,101566.75
2023-02-11T19:32:43.188Z,101585.00
2023-02-11T19:35:48.538Z,101594.66
2023-02-11T19:38:55.360Z,101603.22
2023-02-11T19:41:59.148Z,101597.47
2023-02-11T19:45:01.744Z,101623.22
2023-02-11T19:48:04.318Z,101626.25
2023-02-11T19:51:13.308Z,101634.66
2023-02-11T19:54:15.854Z,101619.66
2023-02-11T19:57:18.346Z,101659.78
2023-02-11T20:00:21.341Z,101670.00
2023-02-11T20:03:23.701Z,101671.34
2023-02-11T20:06:29.186Z,101681.13
2023-02-11T20:09:32.064Z,101680.31
2023-02-11T20:12:34.486Z,101686.28
2023-02-11T20:15:36.850Z,101697.03
2023-02-11T20:18:39.925Z,101696.41
2023-02-11T20:21:43.908Z,101714.22
2023-02-11T20:24:47.887Z,101715.72
2023-02-11T20:27:50.371Z,101732.25
2023-02-11T20:30:57.443Z,101727.94
2023-02-11T20:34:01.307Z,101740.94
2023-02-11T20:37:04.196Z,101750.06
2023-02-11T20:40:07.706Z,101753.66
2023-02-11T20:43:10.210Z,101764.88
2023-02-11T20:46:14.494Z,101762.78
2023-02-11T20:49:21.035Z,101779.56
2023-02-11T20:52:23.423Z,101781.47
2023-02-11T20:55:25.823Z,101786.81
2023-02-11T20:58:28.085Z,101791.94
2023-02-11T21:01:33.043Z,101796.88
2023-02-11T21:04:35.522Z,101814.09
2023-02-11T21:07:39.164Z,101809.84
2023-02-11T21:10:41.752Z,101828.03
2023-02-11T21:13:45.436Z,101829.47
2023-02-11T21:16:48.235Z,101842.03
2023-02-11T21:19:51.330Z,101840.69
2023-02-11T21:22:53.953Z,101836.84
2023-02-11T21:25:57.278Z,101847.84
2023-02-11T21:28:59.749Z,101854.03
2023-02-11T21:32:02.320Z,101852.88
2023-02-11T21:35:04.835Z,101868.75
2023-02-11T21:38:07.088Z,101863.44
2023-02-11T21:41:09.668Z,101873.19
2023-02-11T21:44:12.094Z,101869.16
2023-02-11T21:47:14.369Z,101884.34
2023-02-11T21:50:16.944Z,101882.97
2023-02-11T21:53:19.806Z,101877.22
2023-02-11T21:56:22.200Z,101870.84
2023-02-11T21:59:24.531Z,101878.34
2023-02-11T22:02:26.915Z,101888.53
2023-02-11T22:05:29.224Z,101892.25
2023-02-11T22:08:31.522Z,101895.97
2023-02-11T22:11:33.922Z,101908.47
2023-02-11T22:14:37.227Z,101919.88
2023-02-11T22:17:39.541Z,101925.28
2023-02-11T22:20:41.862Z,101930.16
2023-02-11T22:23:44.769Z,101941.41
2023-02-11T22:26:47.017Z,101943.91
2023-02-11T22:29:49.351Z,101940.38
2023-02-11T22:32:51.918Z,101946.06
2023-02-11T22:36:00.778Z,101953.09
2023-02-11T22:39:08.517Z,101947.34
2023-02-11T22:42:11.016Z,101956.06
2023-02-11T22:45:13.445Z,101965.63
2023-02-11T22:48:15.768Z,101963.63
2023-02-11T22:51:23.372Z,101960.75
2023-02-11T22:54:26.227Z,101977.34
2023-02-11T22:57:29.548Z,101946.59
2023-02-11T23:00:40.353Z,101974.47
2023-02-11T23:03:43.625Z,101975.81
2023-02-11T23:06:47.739Z,101970.09
2023-02-11T23:09:50.361Z,101959.28
2023-02-11T23:12:52.767Z,101973.22
2023-02-11T23:15:55.594Z,101975.72
2023-02-11T23:19:04.175Z,101973.66
2023-02-11T23:22:06.813Z,101982.88
2023-02-11T23:25:09.174Z,101980.69
2023-02-11T23:28:12.677Z,101983.81
2023-02-11T23:31:16.255Z,102002.44
2023-02-11T23:34:24.098Z,101987.66
2023-02-11T23:37:26.878Z,102021.69
2023-02-11T23:40:29.269Z,102024.84
2023-02-11T23:43:31.720Z,102025.06
2023-02-11T23:46:34.402Z,101992.53
2023-02-11T23:49:36.840Z,102041.31
2023-02-11T23:52:39.293Z,102056.97
2023-02-11T23:55:43.449Z,102061.94
2023-02-11T23:58:48.771Z,102075.66
